Time;durP1;ratioP1;P1;durP2;ratioP2;P2;SDS_P1;SDS_P2;PMS_P1;PMS_P2;Temp;Humidity;BMP_temperature;BMP_pressure;BME280_temperature;BME280_humidity;BME280_pressure;Samples;Min_cycle;Max_cycle;Signal;HPM_P1;HPM_P2
2023/08/22 00:01:38;;;;;;;4.78;3.08;;;;;;;;;;5027812;28;20334;-67
2023/08/22 00:04:05;;;;;;;4.50;2.90;;;;;;;;;;5027930;28;20208;-67
2023/08/22 00:06:32;;;;;;;3.00;2.70;;;;;;;;;;5026604;28;20204;-67
2023/08/22 00:08:59;;;;;;;5.68;2.83;;;;;;;;;;5031165;28;20204;-67
2023/08/22 00:11:27;;;;;;;3.40;3.10;;;;;;;;;;5027284;28;20200;-67
2023/08/22 00:13:54;;;;;;;8.15;3.20;;;;;;;;;;5026673;28;20201;-68
2023/08/22 00:16:23;;;;;;;4.55;2.88;;;;;;;;;;5033466;28;20208;-68
2023/08/22 00:18:50;;;;;;;3.95;3.00;;;;;;;;;;5034102;28;20229;-67
2023/08/22 00:21:17;;;;;;;3.20;2.70;;;;;;;;;;5026795;28;20204;-67
2023/08/22 00:23:44;;;;;;;3.05;2.85;;;;;;;;;;5030578;28;20196;-67
2023/08/22 00:26:11;;;;;;;7.43;3.03;;;;;;;;;;5034077;28;20200;-67
2023/08/22 00:28:39;;;;;;;4.28;2.72;;;;;;;;;;5026869;28;20204;-67
2023/08/22 00:31:06;;;;;;;4.28;2.88;;;;;;;;;;5030923;28;20302;-68
2023/08/22 00:33:34;;;;;;;6.13;3.28;;;;;;;;;;5025630;28;20204;-68
2023/08/22 00:36:01;;;;;;;8.00;3.00;;;;;;;;;;5027934;28;20200;-68
2023/08/22 00:38:29;;;;;;;3.60;2.70;;;;;;;;;;5032043;28;20198;-67
2023/08/22 00:40:56;;;;;;;3.33;2.55;;;;;;;;;;5032708;28;20224;-68
2023/08/22 00:43:23;;;;;;;3.47;2.90;;;;;;;;;;5029135;28;20207;-68
2023/08/22 00:45:51;;;;;;;4.38;2.70;;;;;;;;;;5033337;28;20196;-68
2023/08/22 00:48:18;;;;;;;5.05;2.72;;;;;;;;;;5029737;28;20201;-68
2023/08/22 00:50:46;;;;;;;3.80;3.00;;;;;;;;;;5030572;28;20211;-68
2023/08/22 00:53:14;;;;;;;4.35;2.70;;;;;;;;;;5026942;28;20209;-68
2023/08/22 00:55:41;;;;;;;5.78;2.90;;;;;;;;;;5035687;28;20244;-68
2023/08/22 00:58:10;;;;;;;4.72;2.60;;;;;;;;;;5022852;28;20207;-68
2023/08/22 01:00:38;;;;;;;4.43;2.70;;;;;;;;;;5030397;28;20204;-68
2023/08/22 01:03:05;;;;;;;4.32;2.85;;;;;;;;;;5026656;28;20297;-68
2023/08/22 01:05:35;;;;;;;5.72;2.80;;;;;;;;;;5032026;28;20196;-68
2023/08/22 01:08:06;;;;;;;5.80;2.97;;;;;;;;;;5031590;28;20203;-68
2023/08/22 01:10:36;;;;;;;4.30;2.70;;;;;;;;;;5031613;28;20286;-68
2023/08/22 01:13:06;;;;;;;4.57;2.75;;;;;;;;;;5023403;28;20334;-68
2023/08/22 01:15:35;;;;;;;3.17;2.88;;;;;;;;;;5021460;28;20203;-68
2023/08/22 01:18:04;;;;;;;5.85;2.80;;;;;;;;;;5027898;28;20242;-68
2023/08/22 01:20:31;;;;;;;4.53;3.40;;;;;;;;;;5021837;28;20232;-68
2023/08/22 01:23:00;;;;;;;5.05;3.08;;;;;;;;;;5030997;28;20203;-67
2023/08/22 01:25:28;;;;;;;4.65;2.88;;;;;;;;;;5031210;28;20206;-68
2023/08/22 01:27:58;;;;;;;3.63;2.78;;;;;;;;;;5031647;28;20233;-68
2023/08/22 01:30:28;;;;;;;4.53;2.78;;;;;;;;;;5030350;28;20192;-68
2023/08/22 01:32:57;;;;;;;3.28;2.97;;;;;;;;;;5020066;28;20223;-69
2023/08/22 01:35:26;;;;;;;4.78;3.28;;;;;;;;;;5027040;28;20204;-68
2023/08/22 01:37:54;;;;;;;3.58;2.80;;;;;;;;;;5024071;28;20207;-69
2023/08/22 01:40:25;;;;;;;5.43;2.90;;;;;;;;;;5028320;28;20228;-68
2023/08/22 01:42:52;;;;;;;4.55;2.70;;;;;;;;;;5023910;28;20205;-69
2023/08/22 01:45:19;;;;;;;5.50;2.92;;;;;;;;;;5030314;28;20215;-63
2023/08/22 01:47:46;;;;;;;3.97;2.60;;;;;;;;;;5027206;28;20225;-63
2023/08/22 01:50:14;;;;;;;3.60;2.47;;;;;;;;;;5022638;28;20207;-63
2023/08/22 01:52:41;;;;;;;4.85;2.45;;;;;;;;;;5026097;28;20206;-63
2023/08/22 01:55:08;;;;;;;4.93;2.88;;;;;;;;;;5017411;28;20339;-63
2023/08/22 01:57:37;;;;;;;3.58;2.85;;;;;;;;;;5022529;28;20274;-63
2023/08/22 02:00:05;;;;;;;4.45;2.80;;;;;;;;;;5027954;28;20483;-63
2023/08/22 02:02:32;;;;;;;2.90;2.28;;;;;;;;;;5025028;28;20240;-63
2023/08/22 02:04:59;;;;;;;6.35;2.67;;;;;;;;;;5026415;28;20282;-63
2023/08/22 02:07:26;;;;;;;4.93;2.67;;;;;;;;;;5019954;28;20209;-63
2023/08/22 02:09:53;;;;;;;4.93;3.00;;;;;;;;;;5020778;28;20209;-63
2023/08/22 02:12:20;;;;;;;5.13;2.70;;;;;;;;;;5026910;28;20231;-63
2023/08/22 02:14:50;;;;;;;3.10;2.60;;;;;;;;;;5024501;28;20204;-63
2023/08/22 02:17:17;;;;;;;4.28;3.10;;;;;;;;;;5028536;28;20209;-64
2023/08/22 02:19:44;;;;;;;5.72;2.75;;;;;;;;;;5028183;28;20232;-63
2023/08/22 02:22:11;;;;;;;4.50;2.70;;;;;;;;;;5032524;28;20207;-63
2023/08/22 02:24:39;;;;;;;4.93;2.88;;;;;;;;;;5030246;28;20211;-63
2023/08/22 02:27:06;;;;;;;3.78;2.67;;;;;;;;;;5025560;28;20200;-64
2023/08/22 02:29:33;;;;;;;5.95;3.20;;;;;;;;;;5024762;28;20219;-63
2023/08/22 02:32:02;;;;;;;3.03;2.83;;;;;;;;;;5026481;28;20201;-63
2023/08/22 02:34:29;;;;;;;4.20;2.90;;;;;;;;;;5023144;28;20264;-63
2023/08/22 02:36:56;;;;;;;3.17;2.60;;;;;;;;;;5030367;28;20203;-63
2023/08/22 02:39:23;;;;;;;5.10;2.88;;;;;;;;;;5020339;28;20207;-63
2023/08/22 02:41:50;;;;;;;8.48;3.15;;;;;;;;;;5021278;28;20216;-63
2023/08/22 02:44:17;;;;;;;5.07;3.00;;;;;;;;;;5020183;28;20205;-64
2023/08/22 02:46:44;;;;;;;4.15;3.08;;;;;;;;;;5025597;28;20205;-63
2023/08/22 02:49:13;;;;;;;3.75;3.13;;;;;;;;;;5025666;28;20247;-63
2023/08/22 02:51:40;;;;;;;8.30;3.42;;;;;;;;;;5025629;28;20228;-63
2023/08/22 02:54:07;;;;;;;5.53;2.90;;;;;;;;;;5025849;28;20209;-68
2023/08/22 02:56:34;;;;;;;4.03;2.92;;;;;;;;;;5023724;28;20207;-68
2023/08/22 02:59:03;;;;;;;3.28;2.90;;;;;;;;;;5022947;28;20204;-68
2023/08/22 03:01:30;;;;;;;4.93;3.05;;;;;;;;;;5025900;28;20227;-68
2023/08/22 03:03:57;;;;;;;4.25;2.92;;;;;;;;;;5023038;28;20236;-68
2023/08/22 03:06:26;;;;;;;5.20;2.95;;;;;;;;;;5025151;28;20200;-67
2023/08/22 03:08:53;;;;;;;4.13;3.00;;;;;;;;;;5027262;28;20204;-68
2023/08/22 03:11:20;;;;;;;4.88;3.00;;;;;;;;;;5027446;28;20214;-68
2023/08/22 03:13:47;;;;;;;4.88;3.20;;;;;;;;;;5026026;28;20211;-67
2023/08/22 03:16:14;;;;;;;7.85;3.50;;;;;;;;;;5024090;28;20212;-68
2023/08/22 03:18:43;;;;;;;4.55;2.95;;;;;;;;;;5026754;28;20200;-68
2023/08/22 03:21:10;;;;;;;5.38;3.33;;;;;;;;;;5023685;28;20223;-68
2023/08/22 03:23:38;;;;;;;4.10;3.03;;;;;;;;;;5024113;28;20210;-68
2023/08/22 03:26:10;;;;;;;3.92;2.65;;;;;;;;;;5025437;28;20204;-68
2023/08/22 03:28:38;;;;;;;3.35;3.05;;;;;;;;;;5020644;28;20197;-68
2023/08/22 03:31:05;;;;;;;4.13;2.90;;;;;;;;;;5026180;28;20196;-68
2023/08/22 03:33:33;;;;;;;4.03;2.70;;;;;;;;;;5025439;28;20214;-68
2023/08/22 03:36:00;;;;;;;6.03;3.10;;;;;;;;;;5021340;28;20208;-68
2023/08/22 03:38:27;;;;;;;5.43;3.17;;;;;;;;;;5025869;28;20207;-68
2023/08/22 03:40:56;;;;;;;4.35;2.95;;;;;;;;;;5027155;28;20221;-68
2023/08/22 03:43:24;;;;;;;3.55;3.10;;;;;;;;;;5031582;28;20214;-67
2023/08/22 03:45:51;;;;;;;3.90;3.17;;;;;;;;;;5029223;28;20216;-68
2023/08/22 03:48:18;;;;;;;6.55;2.72;;;;;;;;;;5026858;28;20203;-68
2023/08/22 03:50:45;;;;;;;3.88;2.60;;;;;;;;;;5024537;28;20202;-68
2023/08/22 03:53:13;;;;;;;5.65;3.30;;;;;;;;;;5032986;28;20207;-68
2023/08/22 03:55:40;;;;;;;4.15;3.13;;;;;;;;;;5026459;28;20204;-68
2023/08/22 03:58:09;;;;;;;5.80;3.33;;;;;;;;;;5028227;28;20270;-68
2023/08/22 04:00:36;;;;;;;3.65;3.10;;;;;;;;;;5026920;28;20323;-68
2023/08/22 04:03:03;;;;;;;4.05;2.90;;;;;;;;;;5025705;28;20289;-68
2023/08/22 04:05:30;;;;;;;3.42;2.97;;;;;;;;;;5028270;28;20204;-68
2023/08/22 04:07:57;;;;;;;6.28;3.60;;;;;;;;;;5028550;28;20212;-69
2023/08/22 04:10:25;;;;;;;5.28;3.22;;;;;;;;;;5027579;28;20196;-68
2023/08/22 04:12:52;;;;;;;6.47;3.00;;;;;;;;;;5026981;28;20211;-68
2023/08/22 04:15:20;;;;;;;7.25;3.10;;;;;;;;;;5026810;28;20564;-70
2023/08/22 04:17:48;;;;;;;4.90;3.10;;;;;;;;;;5028582;28;20211;-68
2023/08/22 04:20:15;;;;;;;4.63;3.10;;;;;;;;;;5027084;28;20207;-69
2023/08/22 04:22:43;;;;;;;5.47;3.22;;;;;;;;;;5027782;28;20538;-68
2023/08/22 04:25:10;;;;;;;6.90;3.28;;;;;;;;;;5031410;28;20227;-68
2023/08/22 04:27:38;;;;;;;6.75;3.45;;;;;;;;;;5023349;28;20209;-68
2023/08/22 04:30:06;;;;;;;4.80;3.20;;;;;;;;;;5026555;28;20270;-68
2023/08/22 04:32:34;;;;;;;3.85;3.28;;;;;;;;;;5027413;28;20210;-68
2023/08/22 04:35:01;;;;;;;3.88;3.17;;;;;;;;;;5025805;28;20205;-69
2023/08/22 04:37:28;;;;;;;4.13;3.15;;;;;;;;;;5028963;28;20196;-68
2023/08/22 04:39:56;;;;;;;5.57;3.60;;;;;;;;;;5023388;28;20282;-69
2023/08/22 04:42:23;;;;;;;4.82;3.50;;;;;;;;;;5027794;28;20228;-67
2023/08/22 04:44:50;;;;;;;6.35;3.58;;;;;;;;;;5026368;28;20201;-68
2023/08/22 04:47:17;;;;;;;5.00;3.20;;;;;;;;;;5029147;28;20212;-69
2023/08/22 04:49:46;;;;;;;3.90;3.00;;;;;;;;;;5029096;28;20215;-69
2023/08/22 04:52:13;;;;;;;4.75;2.92;;;;;;;;;;5028302;28;20200;-69
2023/08/22 04:54:40;;;;;;;4.00;2.90;;;;;;;;;;5027772;28;20208;-69
2023/08/22 04:57:08;;;;;;;3.20;2.90;;;;;;;;;;5029324;28;20215;-69
2023/08/22 04:59:35;;;;;;;4.53;3.00;;;;;;;;;;5027346;28;20213;-69
2023/08/22 05:02:03;;;;;;;5.80;3.58;;;;;;;;;;5023029;28;20243;-69
2023/08/22 05:04:30;;;;;;;6.10;3.75;;;;;;;;;;5024481;28;20207;-69
2023/08/22 05:06:58;;;;;;;5.70;3.50;;;;;;;;;;5024353;28;20215;-69
2023/08/22 05:09:26;;;;;;;8.15;3.72;;;;;;;;;;5023334;28;20241;-68
2023/08/22 05:11:53;;;;;;;8.50;3.33;;;;;;;;;;5029631;28;20206;-69
2023/08/22 05:14:21;;;;;;;4.13;3.60;;;;;;;;;;5028927;28;20257;-68
2023/08/22 05:16:51;;;;;;;5.25;3.45;;;;;;;;;;5023759;28;20229;-69
2023/08/22 05:19:18;;;;;;;6.68;3.17;;;;;;;;;;5028006;28;20219;-68
2023/08/22 05:21:45;;;;;;;5.90;3.33;;;;;;;;;;5020739;28;20228;-68
2023/08/22 05:24:14;;;;;;;5.18;3.45;;;;;;;;;;5023046;28;20209;-67
2023/08/22 05:26:41;;;;;;;4.68;3.35;;;;;;;;;;5024783;28;20216;-68
2023/08/22 05:29:08;;;;;;;4.38;3.47;;;;;;;;;;5030504;28;20208;-68
2023/08/22 05:31:35;;;;;;;6.22;3.70;;;;;;;;;;5026417;28;20198;-69
2023/08/22 05:34:02;;;;;;;5.20;4.15;;;;;;;;;;5023198;28;20213;-69
2023/08/22 05:36:29;;;;;;;4.25;3.47;;;;;;;;;;5025552;28;20227;-68
2023/08/22 05:38:57;;;;;;;5.15;3.88;;;;;;;;;;5028495;28;20208;-69
2023/08/22 05:41:25;;;;;;;8.07;4.28;;;;;;;;;;5028693;28;20224;-69
2023/08/22 05:43:52;;;;;;;5.20;3.60;;;;;;;;;;5024888;28;20232;-69
2023/08/22 05:46:20;;;;;;;5.93;3.97;;;;;;;;;;5028955;28;20196;-69
2023/08/22 05:48:47;;;;;;;7.65;3.63;;;;;;;;;;5023463;28;20205;-68
2023/08/22 05:51:14;;;;;;;4.00;3.60;;;;;;;;;;5020750;28;20214;-68
2023/08/22 05:53:41;;;;;;;6.82;4.03;;;;;;;;;;5024444;28;20200;-69
2023/08/22 05:56:08;;;;;;;4.90;3.17;;;;;;;;;;5025703;28;20204;-69
2023/08/22 05:58:37;;;;;;;6.22;3.85;;;;;;;;;;5027710;28;20207;-69
2023/08/22 06:01:09;;;;;;;5.43;3.42;;;;;;;;;;5019072;28;20232;-69
2023/08/22 06:03:36;;;;;;;5.28;3.50;;;;;;;;;;5019233;28;20263;-69
2023/08/22 06:06:04;;;;;;;5.72;3.95;;;;;;;;;;5023118;28;20236;-69
2023/08/22 06:08:31;;;;;;;5.13;3.50;;;;;;;;;;5027702;28;20208;-69
2023/08/22 06:10:58;;;;;;;4.82;3.50;;;;;;;;;;5022130;28;20219;-69
2023/08/22 06:13:25;;;;;;;4.55;2.85;;;;;;;;;;5026919;28;20200;-69
2023/08/22 06:15:53;;;;;;;5.85;3.78;;;;;;;;;;5024175;28;20213;-69
2023/08/22 06:18:21;;;;;;;4.65;3.20;;;;;;;;;;5025409;28;20203;-69
2023/08/22 06:20:48;;;;;;;7.85;3.97;;;;;;;;;;5023593;28;20204;-69
2023/08/22 06:23:15;;;;;;;7.50;4.22;;;;;;;;;;5022039;28;20208;-69
2023/08/22 06:25:42;;;;;;;4.65;3.50;;;;;;;;;;5019500;28;20205;-69
2023/08/22 06:28:09;;;;;;;9.23;4.00;;;;;;;;;;5014684;28;20205;-69
2023/08/22 06:30:36;;;;;;;6.22;3.70;;;;;;;;;;5018726;28;20208;-69
2023/08/22 06:33:05;;;;;;;5.03;3.60;;;;;;;;;;5028969;28;20208;-69
2023/08/22 06:35:33;;;;;;;6.53;3.83;;;;;;;;;;5026229;28;20211;-69
2023/08/22 06:38:00;;;;;;;3.33;3.00;;;;;;;;;;5017381;28;20242;-69
2023/08/22 06:40:27;;;;;;;5.00;3.05;;;;;;;;;;5025452;28;20218;-67
2023/08/22 06:42:54;;;;;;;5.35;3.20;;;;;;;;;;5022604;28;20224;-68
2023/08/22 06:45:21;;;;;;;5.00;3.47;;;;;;;;;;5021120;28;20205;-68
2023/08/22 06:47:49;;;;;;;8.68;3.95;;;;;;;;;;5028591;28;20208;-68
2023/08/22 06:50:17;;;;;;;5.22;2.95;;;;;;;;;;5014368;28;20202;-68
2023/08/22 06:52:44;;;;;;;6.28;3.72;;;;;;;;;;5027857;28;20273;-68
2023/08/22 06:55:11;;;;;;;8.75;3.58;;;;;;;;;;5026342;28;20212;-67
2023/08/22 06:57:39;;;;;;;4.93;3.13;;;;;;;;;;5029350;28;20200;-68
2023/08/22 07:00:13;;;;;;;4.45;3.03;;;;;;;;;;5025305;28;20205;-68
2023/08/22 07:02:41;;;;;;;4.82;3.42;;;;;;;;;;5018551;28;20266;-67
2023/08/22 07:05:08;;;;;;;3.47;3.13;;;;;;;;;;5022442;28;20262;-67
2023/08/22 07:07:37;;;;;;;6.95;4.32;;;;;;;;;;5027209;28;20538;-67
2023/08/22 07:10:06;;;;;;;8.80;4.43;;;;;;;;;;5020434;28;20211;-67
2023/08/22 07:12:34;;;;;;;7.57;4.20;;;;;;;;;;5022400;28;20306;-67
2023/08/22 07:15:04;;;;;;;5.53;3.80;;;;;;;;;;5025075;28;20207;-67
2023/08/22 07:17:31;;;;;;;10.07;3.97;;;;;;;;;;5022576;28;20265;-68
2023/08/22 07:19:58;;;;;;;5.20;3.92;;;;;;;;;;5021361;28;20216;-68
2023/08/22 07:22:26;;;;;;;6.97;3.60;;;;;;;;;;5019185;28;20228;-67
2023/08/22 07:24:54;;;;;;;7.32;3.53;;;;;;;;;;5020131;28;20240;-68
2023/08/22 07:27:22;;;;;;;4.60;3.63;;;;;;;;;;5027038;28;20201;-67
2023/08/22 07:29:50;;;;;;;4.97;3.67;;;;;;;;;;5020069;28;20305;-67
2023/08/22 07:32:18;;;;;;;7.15;3.60;;;;;;;;;;5023232;28;20205;-67
2023/08/22 07:34:46;;;;;;;5.15;3.75;;;;;;;;;;5021907;28;20200;-67
2023/08/22 07:37:13;;;;;;;5.07;3.67;;;;;;;;;;5022604;28;20209;-67
2023/08/22 07:39:40;;;;;;;4.95;3.40;;;;;;;;;;5022747;28;20211;-67
2023/08/22 07:42:09;;;;;;;8.02;4.03;;;;;;;;;;5028459;28;20220;-67
2023/08/22 07:44:36;;;;;;;6.10;3.42;;;;;;;;;;5025156;28;20216;-67
2023/08/22 07:47:03;;;;;;;4.88;3.63;;;;;;;;;;5026118;28;20235;-67
2023/08/22 07:49:31;;;;;;;5.40;3.35;;;;;;;;;;5027610;28;20243;-66
2023/08/22 07:51:58;;;;;;;5.10;3.05;;;;;;;;;;5027381;28;20201;-67
2023/08/22 07:54:25;;;;;;;4.35;3.13;;;;;;;;;;5019536;28;20211;-67
2023/08/22 07:56:52;;;;;;;6.05;3.38;;;;;;;;;;5022939;28;20219;-67
2023/08/22 07:59:21;;;;;;;6.93;3.45;;;;;;;;;;5026915;28;20218;-66
2023/08/22 08:01:48;;;;;;;5.40;3.13;;;;;;;;;;5024134;28;20228;-66
2023/08/22 08:04:15;;;;;;;6.03;3.08;;;;;;;;;;5024224;28;20204;-66
2023/08/22 08:06:42;;;;;;;5.45;3.33;;;;;;;;;;5023880;28;20201;-66
2023/08/22 08:09:11;;;;;;;6.00;3.30;;;;;;;;;;5024858;28;20232;-66
2023/08/22 08:11:38;;;;;;;4.75;3.50;;;;;;;;;;5022931;28;20222;-66
2023/08/22 08:14:06;;;;;;;4.93;3.35;;;;;;;;;;5019131;28;20216;-66
2023/08/22 08:16:35;;;;;;;5.72;3.42;;;;;;;;;;5027522;28;20271;-66
2023/08/22 08:19:03;;;;;;;4.82;3.50;;;;;;;;;;5027390;28;20207;-66
2023/08/22 08:21:30;;;;;;;6.55;3.40;;;;;;;;;;5023208;28;20204;-66
2023/08/22 08:23:57;;;;;;;7.47;3.45;;;;;;;;;;5025087;28;20207;-66
2023/08/22 08:26:25;;;;;;;4.10;3.47;;;;;;;;;;5021615;28;20215;-66
2023/08/22 08:28:52;;;;;;;4.82;3.03;;;;;;;;;;5022787;28;20200;-66
2023/08/22 08:31:20;;;;;;;6.18;3.13;;;;;;;;;;5021656;28;20216;-66
2023/08/22 08:33:48;;;;;;;6.55;3.42;;;;;;;;;;5021109;28;20201;-66
2023/08/22 08:36:15;;;;;;;6.70;3.05;;;;;;;;;;5022984;28;20209;-66
2023/08/22 08:38:42;;;;;;;5.90;3.65;;;;;;;;;;5024128;28;20267;-66
2023/08/22 08:41:10;;;;;;;5.70;3.30;;;;;;;;;;5020121;28;20301;-66
2023/08/22 08:43:37;;;;;;;4.55;3.70;;;;;;;;;;5026659;28;20227;-66
2023/08/22 08:46:05;;;;;;;5.82;3.72;;;;;;;;;;5021223;28;20338;-66
2023/08/22 08:48:32;;;;;;;3.35;3.03;;;;;;;;;;5021604;28;20280;-66
2023/08/22 08:51:03;;;;;;;4.45;3.15;;;;;;;;;;5020138;28;20232;-66
2023/08/22 08:53:31;;;;;;;6.20;3.13;;;;;;;;;;5018108;28;20212;-66
2023/08/22 08:55:58;;;;;;;4.78;3.17;;;;;;;;;;5024366;28;20219;-66
2023/08/22 08:58:25;;;;;;;6.93;3.20;;;;;;;;;;5022766;28;20212;-66
2023/08/22 09:00:52;;;;;;;4.15;3.25;;;;;;;;;;5019207;28;20209;-66
2023/08/22 09:03:20;;;;;;;5.40;3.00;;;;;;;;;;5012675;28;20244;-66
2023/08/22 09:05:47;;;;;;;4.82;3.10;;;;;;;;;;5022568;28;20208;-66
2023/08/22 09:08:19;;;;;;;5.28;3.30;;;;;;;;;;5025718;28;20238;-66
2023/08/22 09:10:51;;;;;;;3.60;2.50;;;;;;;;;;5020722;28;20209;-66
2023/08/22 09:13:18;;;;;;;3.75;2.92;;;;;;;;;;5017400;28;20207;-66
2023/08/22 09:15:45;;;;;;;5.63;3.00;;;;;;;;;;5023036;28;20211;-66
2023/08/22 09:18:14;;;;;;;6.82;3.22;;;;;;;;;;5021362;28;20207;-67
2023/08/22 09:20:45;;;;;;;5.32;3.30;;;;;;;;;;5024390;28;20219;-66
2023/08/22 09:23:21;;;;;;;5.82;3.20;;;;;;;;;;5019198;28;20323;-67
2023/08/22 09:25:48;;;;;;;5.90;3.10;;;;;;;;;;5020090;28;20206;-67
2023/08/22 09:28:17;;;;;;;7.57;3.20;;;;;;;;;;5020499;28;20219;-67
2023/08/22 09:30:48;;;;;;;5.10;2.97;;;;;;;;;;5012896;28;20204;-67
2023/08/22 09:33:15;;;;;;;5.55;2.95;;;;;;;;;;5017773;28;20205;-66
2023/08/22 09:35:42;;;;;;;5.38;2.92;;;;;;;;;;5020557;28;20209;-66
2023/08/22 09:38:11;;;;;;;3.38;2.60;;;;;;;;;;5018681;28;20211;-66
2023/08/22 09:40:50;;;;;;;7.57;3.20;;;;;;;;;;5020221;28;20211;-66
2023/08/22 09:43:19;;;;;;;4.90;3.20;;;;;;;;;;5012088;28;20229;-66
2023/08/22 09:45:46;;;;;;;3.30;2.50;;;;;;;;;;5011859;28;20219;-66
2023/08/22 09:48:15;;;;;;;4.47;2.95;;;;;;;;;;5018657;28;20208;-66
2023/08/22 09:50:44;;;;;;;5.13;3.22;;;;;;;;;;5021557;28;20204;-67
2023/08/22 09:53:11;;;;;;;5.60;3.30;;;;;;;;;;5014749;28;20213;-67
2023/08/22 09:55:40;;;;;;;7.82;3.10;;;;;;;;;;5018243;28;20204;-68
2023/08/22 09:58:08;;;;;;;5.47;3.20;;;;;;;;;;5014561;28;20209;-66
2023/08/22 10:00:36;;;;;;;5.57;3.25;;;;;;;;;;5019424;28;20205;-66
2023/08/22 10:03:03;;;;;;;4.55;3.65;;;;;;;;;;5023430;28;20237;-66
2023/08/22 10:05:32;;;;;;;6.00;2.92;;;;;;;;;;5021371;28;20208;-66
2023/08/22 10:07:59;;;;;;;4.10;3.10;;;;;;;;;;5022881;28;20205;-66
2023/08/22 10:10:27;;;;;;;5.00;2.70;;;;;;;;;;5022836;28;20232;-66
2023/08/22 10:12:56;;;;;;;4.22;3.00;;;;;;;;;;5021542;28;20207;-67
2023/08/22 10:15:23;;;;;;;4.32;2.80;;;;;;;;;;5016798;28;20217;-67
2023/08/22 10:17:51;;;;;;;7.00;3.03;;;;;;;;;;5012857;28;20255;-66
2023/08/22 10:20:18;;;;;;;4.28;3.10;;;;;;;;;;5013123;28;20212;-68
2023/08/22 10:22:45;;;;;;;6.20;3.00;;;;;;;;;;5013658;28;20232;-68
2023/08/22 10:25:12;;;;;;;3.53;2.70;;;;;;;;;;5018127;28;20211;-67
2023/08/22 10:27:40;;;;;;;3.22;2.78;;;;;;;;;;5023195;28;20204;-67
2023/08/22 10:30:25;;;;;;;3.97;2.80;;;;;;;;;;5016753;28;20251;-67
2023/08/22 10:33:07;;;;;;;5.80;3.00;;;;;;;;;;5012375;28;20204;-66
2023/08/22 10:35:35;;;;;;;5.30;3.10;;;;;;;;;;5011812;28;20220;-66
2023/08/22 10:38:03;;;;;;;6.30;3.10;;;;;;;;;;5017861;28;20232;-66
2023/08/22 10:40:35;;;;;;;3.42;2.70;;;;;;;;;;5029503;28;20204;-66
2023/08/22 10:43:13;;;;;;;3.97;2.45;;;;;;;;;;5030292;28;20310;-66
2023/08/22 10:45:44;;;;;;;4.05;2.97;;;;;;;;;;5023672;28;20214;-67
2023/08/22 10:48:14;;;;;;;5.80;2.85;;;;;;;;;;5027352;28;20212;-66
2023/08/22 10:50:42;;;;;;;3.08;2.67;;;;;;;;;;5028480;28;20214;-66
2023/08/22 10:53:17;;;;;;;6.63;2.83;;;;;;;;;;5023425;28;20255;-66
2023/08/22 10:55:45;;;;;;;5.03;2.92;;;;;;;;;;5029593;28;20203;-66
2023/08/22 10:58:27;;;;;;;3.50;2.03;;;;;;;;;;5031489;28;20208;-67
2023/08/22 11:00:55;;;;;;;4.55;2.65;;;;;;;;;;5029024;28;20215;-66
2023/08/22 11:03:23;;;;;;;4.75;2.90;;;;;;;;;;5019120;28;20240;-62
2023/08/22 11:05:51;;;;;;;4.90;2.92;;;;;;;;;;5025506;28;20207;-68
2023/08/22 11:08:18;;;;;;;4.78;2.45;;;;;;;;;;5023975;28;20199;-67
2023/08/22 11:10:46;;;;;;;4.10;2.58;;;;;;;;;;5023423;28;20566;-70
2023/08/22 11:13:13;;;;;;;3.00;2.55;;;;;;;;;;5022271;28;20204;-67
2023/08/22 11:15:41;;;;;;;7.10;2.70;;;;;;;;;;5025262;28;20208;-68
2023/08/22 11:18:08;;;;;;;7.65;2.75;;;;;;;;;;5018550;28;20255;-67
2023/08/22 11:20:37;;;;;;;6.82;2.72;;;;;;;;;;5026100;28;20208;-68
2023/08/22 11:23:06;;;;;;;4.32;2.53;;;;;;;;;;5026543;28;20217;-66
2023/08/22 11:25:33;;;;;;;3.50;2.22;;;;;;;;;;5026374;28;20212;-66
2023/08/22 11:28:01;;;;;;;6.22;2.80;;;;;;;;;;5019775;28;20215;-66
2023/08/22 11:30:28;;;;;;;6.22;3.03;;;;;;;;;;5019102;28;20213;-66
2023/08/22 11:32:55;;;;;;;3.78;2.67;;;;;;;;;;5022852;28;20201;-66
2023/08/22 11:35:22;;;;;;;7.72;3.00;;;;;;;;;;5020716;28;20208;-67
2023/08/22 11:37:52;;;;;;;6.88;2.83;;;;;;;;;;5024113;28;20224;-68
2023/08/22 11:40:20;;;;;;;5.20;2.50;;;;;;;;;;5016412;28;20215;-67
2023/08/22 11:42:47;;;;;;;6.05;3.10;;;;;;;;;;5020391;28;20216;-67
2023/08/22 11:45:17;;;;;;;8.20;3.20;;;;;;;;;;5023050;28;20220;-67
2023/08/22 11:47:45;;;;;;;4.95;2.63;;;;;;;;;;5013991;28;20266;-68
2023/08/22 11:50:13;;;;;;;7.55;2.60;;;;;;;;;;5021539;28;20248;-68
2023/08/22 11:52:42;;;;;;;6.57;2.70;;;;;;;;;;5021654;28;20196;-67
2023/08/22 11:55:11;;;;;;;4.05;2.47;;;;;;;;;;5026039;28;20223;-67
2023/08/22 11:57:41;;;;;;;6.97;2.65;;;;;;;;;;5024758;28;20201;-67
2023/08/22 12:00:09;;;;;;;3.65;2.50;;;;;;;;;;5023719;28;20206;-67
2023/08/22 12:02:36;;;;;;;2.60;2.17;;;;;;;;;;5026707;28;20232;-68
2023/08/22 12:05:04;;;;;;;2.47;2.10;;;;;;;;;;5024332;28;20235;-68
2023/08/22 12:07:31;;;;;;;5.20;2.60;;;;;;;;;;5022148;28;20204;-67
2023/08/22 12:09:59;;;;;;;3.78;2.53;;;;;;;;;;5021603;28;20212;-67
2023/08/22 12:12:29;;;;;;;4.53;2.80;;;;;;;;;;5022605;28;20213;-67
2023/08/22 12:14:56;;;;;;;5.15;2.58;;;;;;;;;;5026946;28;20216;-67
2023/08/22 12:17:23;;;;;;;3.67;2.40;;;;;;;;;;5024870;28;20291;-67
2023/08/22 12:19:50;;;;;;;4.75;2.40;;;;;;;;;;5027451;28;20244;-67
2023/08/22 12:22:17;;;;;;;4.97;2.38;;;;;;;;;;5020053;28;20204;-67
2023/08/22 12:24:45;;;;;;;3.78;2.30;;;;;;;;;;5020224;28;20232;-68
2023/08/22 12:27:12;;;;;;;5.60;2.67;;;;;;;;;;5026029;28;20216;-67
2023/08/22 12:29:42;;;;;;;7.93;2.22;;;;;;;;;;5023818;28;20217;-66
2023/08/22 12:32:10;;;;;;;3.85;2.17;;;;;;;;;;5025151;28;20239;-67
2023/08/22 12:34:37;;;;;;;3.42;2.10;;;;;;;;;;5025274;28;20203;-67
2023/08/22 12:37:05;;;;;;;2.15;1.95;;;;;;;;;;5024993;28;20205;-67
2023/08/22 12:39:32;;;;;;;2.38;2.10;;;;;;;;;;5026496;28;20212;-67
2023/08/22 12:41:59;;;;;;;3.50;1.98;;;;;;;;;;5025153;28;20222;-67
2023/08/22 12:44:26;;;;;;;4.05;2.15;;;;;;;;;;5019792;28;20232;-62
2023/08/22 12:46:57;;;;;;;3.20;1.80;;;;;;;;;;5022695;28;20208;-63
2023/08/22 12:49:24;;;;;;;3.00;2.22;;;;;;;;;;5021854;28;20287;-63
2023/08/22 12:51:52;;;;;;;2.53;2.30;;;;;;;;;;5023331;28;20218;-63
2023/08/22 12:54:19;;;;;;;3.35;2.35;;;;;;;;;;5021110;28;20203;-62
2023/08/22 12:56:46;;;;;;;2.75;2.28;;;;;;;;;;5026172;28;20246;-62
2023/08/22 12:59:13;;;;;;;4.35;2.30;;;;;;;;;;5019872;28;20200;-63
2023/08/22 13:01:40;;;;;;;4.60;2.15;;;;;;;;;;5023181;28;20239;-63
2023/08/22 13:04:18;;;;;;;3.50;2.25;;;;;;;;;;5025249;28;20214;-63
2023/08/22 13:06:45;;;;;;;3.83;2.42;;;;;;;;;;5017070;28;20197;-62
2023/08/22 13:09:12;;;;;;;5.68;2.42;;;;;;;;;;5021602;28;20223;-64
2023/08/22 13:11:40;;;;;;;4.07;2.55;;;;;;;;;;5016569;28;20209;-61
2023/08/22 13:14:07;;;;;;;3.03;2.25;;;;;;;;;;5025884;28;20205;-62
2023/08/22 13:16:34;;;;;;;3.83;2.22;;;;;;;;;;5019369;28;20196;-63
2023/08/22 13:19:02;;;;;;;3.92;2.10;;;;;;;;;;5021154;28;20232;-62
2023/08/22 13:21:30;;;;;;;2.67;1.92;;;;;;;;;;5020665;28;20205;-62
2023/08/22 13:23:57;;;;;;;2.47;2.15;;;;;;;;;;5021984;28;20240;-62
2023/08/22 13:26:25;;;;;;;2.85;2.33;;;;;;;;;;5022486;28;20209;-62
2023/08/22 13:28:52;;;;;;;2.72;2.38;;;;;;;;;;5020926;28;20212;-63
2023/08/22 13:31:20;;;;;;;3.20;2.47;;;;;;;;;;5020756;28;20231;-62
2023/08/22 13:33:47;;;;;;;2.95;2.22;;;;;;;;;;5021089;28;20204;-63
2023/08/22 13:36:14;;;;;;;3.10;2.08;;;;;;;;;;5018703;28;20215;-62
2023/08/22 13:38:43;;;;;;;3.08;2.40;;;;;;;;;;5025419;28;20201;-62
2023/08/22 13:41:10;;;;;;;3.67;2.40;;;;;;;;;;5018091;28;20231;-62
2023/08/22 13:43:38;;;;;;;4.30;2.42;;;;;;;;;;5019731;28;20232;-63
2023/08/22 13:46:06;;;;;;;4.25;2.53;;;;;;;;;;5021234;28;20231;-62
2023/08/22 13:48:33;;;;;;;3.25;2.00;;;;;;;;;;5017911;28;20293;-62
2023/08/22 13:51:00;;;;;;;3.67;2.50;;;;;;;;;;5028226;28;20218;-63
2023/08/22 13:53:29;;;;;;;3.47;2.10;;;;;;;;;;5027265;28;20196;-64
2023/08/22 13:55:57;;;;;;;4.60;2.30;;;;;;;;;;5025184;28;20211;-63
2023/08/22 13:58:25;;;;;;;4.38;2.10;;;;;;;;;;5017560;28;20209;-63
2023/08/22 14:00:52;;;;;;;4.00;2.20;;;;;;;;;;5020776;28;20200;-62
2023/08/22 14:03:19;;;;;;;4.13;2.35;;;;;;;;;;5022275;28;20246;-62
2023/08/22 14:05:46;;;;;;;4.57;2.20;;;;;;;;;;5019647;28;20198;-64
2023/08/22 14:08:13;;;;;;;3.22;2.20;;;;;;;;;;5012504;28;20278;-63
2023/08/22 14:10:41;;;;;;;2.88;2.10;;;;;;;;;;5012129;28;20212;-63
2023/08/22 14:13:09;;;;;;;2.97;2.00;;;;;;;;;;5012041;28;20208;-62
2023/08/22 14:15:36;;;;;;;3.15;2.10;;;;;;;;;;5017808;28;20211;-63
2023/08/22 14:18:04;;;;;;;4.70;2.42;;;;;;;;;;5024554;28;20298;-64
2023/08/22 14:20:31;;;;;;;3.45;2.20;;;;;;;;;;5025633;28;20208;-63
2023/08/22 14:22:58;;;;;;;5.68;2.50;;;;;;;;;;5022204;28;20205;-63
2023/08/22 14:25:25;;;;;;;5.18;2.67;;;;;;;;;;5018374;28;20217;-62
2023/08/22 14:27:52;;;;;;;3.45;2.03;;;;;;;;;;5017296;28;20200;-62
2023/08/22 14:30:21;;;;;;;2.65;2.15;;;;;;;;;;5021201;28;20207;-62
2023/08/22 14:32:48;;;;;;;3.25;2.20;;;;;;;;;;5013387;28;20212;-62
2023/08/22 14:35:15;;;;;;;3.42;2.30;;;;;;;;;;5018216;28;20208;-62
2023/08/22 14:37:43;;;;;;;5.70;2.20;;;;;;;;;;5019271;28;20235;-63
2023/08/22 14:40:10;;;;;;;2.70;1.85;;;;;;;;;;5021658;28;20206;-62
2023/08/22 14:42:37;;;;;;;4.18;2.30;;;;;;;;;;5012675;28;20204;-62
2023/08/22 14:45:04;;;;;;;3.45;2.22;;;;;;;;;;5012578;28;20224;-63
2023/08/22 14:47:33;;;;;;;4.60;2.10;;;;;;;;;;5024928;28;20207;-62